Time;durP1;ratioP1;P1;durP2;ratioP2;P2;SDS_P1;SDS_P2;PMS_P1;PMS_P2;Temp;Humidity;BMP_temperature;BMP_pressure;BME280_temperature;BME280_humidity;BME280_pressure;Samples;Min_cycle;Max_cycle;Signal;HPM_P1;HPM_P2
2024/03/05 00:01:47;;;;;;;68.57;25.97;;;8.20;88.10;;;;;;5003960;28;21026;-72
2024/03/05 00:04:13;;;;;;;70.17;26.30;;;8.30;88.30;;;;;;5009199;28;20182;-68
2024/03/05 00:06:38;;;;;;;77.10;27.20;;;8.30;88.10;;;;;;5007982;28;20554;-70
2024/03/05 00:09:05;;;;;;;66.33;24.43;;;8.40;88.10;;;;;;5008224;28;20955;-72
2024/03/05 00:11:31;;;;;;;76.83;25.53;;;8.40;88.00;;;;;;5003889;28;20572;-71
2024/03/05 00:13:57;;;;;;;74.67;26.93;;;8.40;87.80;;;;;;5007144;28;20472;-71
2024/03/05 00:16:23;;;;;;;70.00;26.33;;;8.30;87.70;;;;;;5006651;28;20420;-71
2024/03/05 00:18:49;;;;;;;66.90;25.63;;;8.30;87.70;;;;;;5005645;28;20421;-71
2024/03/05 00:21:14;;;;;;;76.37;29.67;;;8.30;87.80;;;;;;5004670;28;20206;-70
2024/03/05 00:23:40;;;;;;;72.67;25.40;;;8.20;87.70;;;;;;5007458;28;20730;-69
2024/03/05 00:26:06;;;;;;;82.13;27.37;;;8.20;87.70;;;;;;5007532;28;20236;-71
2024/03/05 00:28:34;;;;;;;70.27;27.73;;;8.20;87.80;;;;;;5007915;28;20236;-70
2024/03/05 00:31:00;;;;;;;63.90;25.33;;;8.20;88.00;;;;;;5004019;28;20522;-72
2024/03/05 00:33:26;;;;;;;62.70;24.67;;;8.20;87.80;;;;;;5006973;28;20597;-71
2024/03/05 00:35:51;;;;;;;67.90;25.73;;;8.10;88.00;;;;;;5010805;28;20185;-71
2024/03/05 00:38:17;;;;;;;62.87;23.83;;;8.10;88.10;;;;;;5009815;28;21095;-70
2024/03/05 00:40:44;;;;;;;70.37;25.30;;;8.20;88.10;;;;;;5013517;28;20252;-70
2024/03/05 00:43:10;;;;;;;63.43;24.47;;;8.30;88.00;;;;;;5009960;28;20535;-71
2024/03/05 00:45:36;;;;;;;66.43;24.93;;;8.20;87.80;;;;;;5011421;28;20420;-70
2024/03/05 00:48:02;;;;;;;66.10;23.63;;;8.30;87.80;;;;;;5011838;28;20178;-70
2024/03/05 00:50:28;;;;;;;65.83;22.63;;;8.40;87.60;;;;;;5009402;28;20483;-67
2024/03/05 00:52:54;;;;;;;62.07;25.40;;;8.50;87.40;;;;;;5010455;28;20460;-72
2024/03/05 00:55:20;;;;;;;65.00;25.30;;;8.50;87.10;;;;;;5009713;28;20268;-69
2024/03/05 00:57:45;;;;;;;58.30;22.20;;;8.40;86.90;;;;;;5010657;28;20585;-70
2024/03/05 01:00:15;;;;;;;57.80;22.63;;;8.40;87.00;;;;;;5011000;28;20568;-71
2024/03/05 01:02:42;;;;;;;60.30;22.70;;;8.50;87.00;;;;;;5007233;28;20432;-70
2024/03/05 01:05:09;;;;;;;55.63;21.83;;;8.50;87.00;;;;;;5010539;28;20421;-69
2024/03/05 01:07:36;;;;;;;61.57;25.53;;;8.50;87.00;;;;;;5010621;28;20432;-71
2024/03/05 01:10:04;;;;;;;58.80;23.93;;;8.50;87.00;;;;;;5010773;28;20427;-69
2024/03/05 01:12:30;;;;;;;54.00;21.73;;;8.50;87.00;;;;;;5007470;28;20469;-69
2024/03/05 01:14:55;;;;;;;60.27;23.40;;;8.50;87.00;;;;;;5009065;28;20483;-70
2024/03/05 01:17:21;;;;;;;54.93;23.90;;;8.60;87.00;;;;;;5009579;28;20263;-70
2024/03/05 01:19:46;;;;;;;59.30;22.03;;;8.50;86.90;;;;;;5008477;28;20190;-69
2024/03/05 01:22:12;;;;;;;59.87;22.83;;;8.60;86.90;;;;;;5008074;28;20706;-71
2024/03/05 01:24:37;;;;;;;68.13;25.23;;;8.60;86.50;;;;;;5009896;28;20320;-69
2024/03/05 01:27:04;;;;;;;68.37;23.13;;;8.60;86.30;;;;;;5012761;28;20655;-71
2024/03/05 01:29:30;;;;;;;61.37;23.90;;;8.60;86.50;;;;;;5012434;28;20519;-71
2024/03/05 01:31:56;;;;;;;61.30;22.40;;;8.70;86.50;;;;;;5009289;28;20973;-70
2024/03/05 01:34:23;;;;;;;57.00;22.80;;;8.70;86.00;;;;;;5012588;28;20563;-70
2024/03/05 01:36:49;;;;;;;58.30;23.03;;;8.70;85.60;;;;;;5012072;28;20674;-71
2024/03/05 01:39:16;;;;;;;61.00;22.00;;;8.60;85.50;;;;;;5012669;28;20412;-69
2024/03/05 01:41:43;;;;;;;57.10;22.30;;;8.60;85.60;;;;;;5012476;28;20559;-72
2024/03/05 01:44:08;;;;;;;59.13;24.70;;;8.40;85.70;;;;;;5012635;28;20436;-71
2024/03/05 01:46:34;;;;;;;61.53;23.73;;;8.40;86.00;;;;;;5011061;28;20428;-70
2024/03/05 01:49:00;;;;;;;53.20;21.17;;;8.50;86.50;;;;;;5014368;28;20178;-70
2024/03/05 01:51:26;;;;;;;49.47;19.47;;;8.50;86.50;;;;;;5009074;28;20337;-71
2024/03/05 01:53:52;;;;;;;62.70;23.33;;;8.40;86.50;;;;;;5012349;28;20212;-70
2024/03/05 01:56:18;;;;;;;58.20;22.60;;;8.40;86.50;;;;;;5012293;28;20455;-69
2024/03/05 01:58:45;;;;;;;51.87;19.67;;;8.40;86.50;;;;;;5011822;28;20516;-69
2024/03/05 02:01:11;;;;;;;58.97;22.53;;;8.60;86.60;;;;;;5008531;28;20547;-71
2024/03/05 02:03:38;;;;;;;63.97;22.63;;;8.60;85.90;;;;;;5012176;28;20975;-71
2024/03/05 02:06:07;;;;;;;63.23;22.60;;;8.50;85.70;;;;;;5011752;28;20441;-70
2024/03/05 02:08:35;;;;;;;63.53;23.77;;;8.40;86.00;;;;;;5012127;28;20496;-71
2024/03/05 02:11:01;;;;;;;67.30;24.23;;;8.30;86.30;;;;;;5009399;28;20469;-70
2024/03/05 02:13:27;;;;;;;59.57;23.27;;;8.30;86.60;;;;;;5012026;28;20480;-69
2024/03/05 02:15:53;;;;;;;66.70;24.47;;;8.30;86.80;;;;;;5011334;28;20487;-70
2024/03/05 02:18:18;;;;;;;58.00;23.53;;;8.30;86.90;;;;;;5011218;28;20221;-72
2024/03/05 02:20:44;;;;;;;62.30;24.03;;;8.40;87.00;;;;;;5007988;28;20897;-70
2024/03/05 02:23:09;;;;;;;59.87;22.60;;;8.40;87.10;;;;;;5012754;28;20237;-71
2024/03/05 02:25:35;;;;;;;59.37;23.00;;;8.50;87.30;;;;;;5011249;28;20174;-72
2024/03/05 02:28:02;;;;;;;69.50;26.47;;;8.50;87.00;;;;;;5012001;28;20649;-70
2024/03/05 02:30:31;;;;;;;63.23;25.17;;;8.40;87.00;;;;;;5010022;28;20554;-70
2024/03/05 02:32:57;;;;;;;57.13;21.03;;;8.40;87.10;;;;;;5010791;28;20429;-70
2024/03/05 02:35:23;;;;;;;68.33;24.07;;;8.50;87.40;;;;;;5011699;28;20496;-70
2024/03/05 02:37:49;;;;;;;65.00;24.40;;;8.50;87.40;;;;;;5010839;28;20943;-70
2024/03/05 02:40:15;;;;;;;71.47;24.60;;;8.50;87.30;;;;;;5008965;28;20273;-72
2024/03/05 02:42:41;;;;;;;69.03;24.17;;;8.40;87.40;;;;;;5011084;28;20654;-70
2024/03/05 02:45:08;;;;;;;65.77;23.10;;;8.50;87.70;;;;;;5011114;28;20420;-69
2024/03/05 02:47:36;;;;;;;62.40;24.00;;;8.60;87.70;;;;;;5012824;28;20483;-71
2024/03/05 02:50:03;;;;;;;59.33;24.20;;;8.80;87.60;;;;;;5010837;28;20445;-70
2024/03/05 02:52:30;;;;;;;68.90;25.83;;;8.70;87.30;;;;;;5008472;28;20543;-71
2024/03/05 02:54:57;;;;;;;62.50;23.77;;;8.70;87.10;;;;;;5010336;28;20472;-68
2024/03/05 02:57:23;;;;;;;61.17;22.80;;;8.60;87.30;;;;;;5010799;28;20463;-70
2024/03/05 02:59:48;;;;;;;59.70;23.67;;;8.80;87.30;;;;;;5010772;28;20796;-70
2024/03/05 03:02:14;;;;;;;66.10;24.90;;;8.80;86.80;;;;;;5006496;28;20445;-69
2024/03/05 03:04:39;;;;;;;66.47;24.20;;;8.70;86.60;;;;;;5010222;28;20269;-70
2024/03/05 03:07:06;;;;;;;52.53;22.27;;;8.70;86.80;;;;;;5010731;28;20600;-72
2024/03/05 03:09:31;;;;;;;58.00;23.10;;;8.70;86.60;;;;;;5010599;28;20235;-71
2024/03/05 03:11:57;;;;;;;55.80;24.53;;;8.70;86.80;;;;;;5007478;28;20468;-71
2024/03/05 03:14:22;;;;;;;62.23;23.03;;;8.80;86.90;;;;;;5013945;28;20586;-71
2024/03/05 03:16:50;;;;;;;66.27;24.37;;;8.80;86.90;;;;;;5012836;28;20204;-70
2024/03/05 03:19:16;;;;;;;56.63;21.93;;;8.70;86.90;;;;;;5010367;28;20190;-70
2024/03/05 03:21:42;;;;;;;54.37;21.37;;;8.60;87.00;;;;;;5007428;28;20483;-71
2024/03/05 03:24:13;;;;;;;55.23;21.43;;;8.70;87.10;;;;;;5010488;28;20417;-71
2024/03/05 03:26:38;;;;;;;57.17;22.07;;;8.80;87.30;;;;;;5010265;28;20432;-70
2024/03/05 03:29:11;;;;;;;63.43;23.70;;;8.80;87.10;;;;;;5010312;28;20417;-71
2024/03/05 03:31:48;;;;;;;50.77;21.50;;;8.70;87.00;;;;;;5007486;28;20722;-70
2024/03/05 03:34:17;;;;;;;51.50;21.67;;;8.80;87.00;;;;;;5009934;28;20504;-70
2024/03/05 03:36:43;;;;;;;55.57;21.30;;;8.80;86.90;;;;;;5010240;28;20441;-70
2024/03/05 03:39:11;;;;;;;59.90;23.30;;;8.80;86.90;;;;;;5010452;28;20463;-69
2024/03/05 03:41:39;;;;;;;53.13;22.00;;;8.80;86.60;;;;;;5010695;28;20835;-71
2024/03/05 03:44:06;;;;;;;49.23;21.13;;;8.80;86.60;;;;;;5007001;28;20424;-70
2024/03/05 03:46:34;;;;;;;53.47;20.30;;;8.80;86.60;;;;;;5010480;28;20484;-70
2024/03/05 03:49:02;;;;;;;47.03;19.80;;;8.80;86.30;;;;;;5007434;28;20807;-69
2024/03/05 03:51:29;;;;;;;52.23;20.33;;;8.70;86.20;;;;;;5006598;28;20469;-70
2024/03/05 03:53:54;;;;;;;52.40;20.57;;;8.70;86.50;;;;;;5014019;28;21017;-70
2024/03/05 03:56:20;;;;;;;48.63;21.57;;;8.80;86.50;;;;;;5009531;28;20432;-69
2024/03/05 03:58:46;;;;;;;51.73;21.10;;;8.80;86.50;;;;;;5009833;28;20189;-70
2024/03/05 04:01:13;;;;;;;49.37;19.73;;;8.70;86.30;;;;;;5006744;28;20531;-71
2024/03/05 04:03:39;;;;;;;60.80;21.80;;;8.70;86.30;;;;;;5009682;28;20758;-70
2024/03/05 04:06:05;;;;;;;66.33;23.23;;;8.80;86.50;;;;;;5008935;28;20421;-70
2024/03/05 04:08:31;;;;;;;54.27;19.83;;;8.80;86.20;;;;;;5009239;28;20420;-70
2024/03/05 04:10:57;;;;;;;50.53;21.10;;;8.70;86.00;;;;;;5006424;28;20291;-72
2024/03/05 04:13:23;;;;;;;59.50;20.90;;;8.60;86.20;;;;;;5009425;28;20516;-69
2024/03/05 04:15:49;;;;;;;65.97;23.50;;;8.60;86.50;;;;;;5009567;28;20190;-70
2024/03/05 04:18:15;;;;;;;62.80;25.00;;;8.50;86.80;;;;;;5010148;28;20521;-71
2024/03/05 04:20:41;;;;;;;58.13;20.97;;;8.40;87.00;;;;;;5006737;28;20558;-69
2024/03/05 04:23:09;;;;;;;63.67;22.33;;;8.40;87.30;;;;;;5010286;28;20698;-71
2024/03/05 04:25:39;;;;;;;63.40;23.20;;;8.40;87.40;;;;;;5008991;28;20501;-69
2024/03/05 04:28:10;;;;;;;67.33;21.80;;;8.40;87.40;;;;;;5009889;28;20421;-69
2024/03/05 04:30:38;;;;;;;53.27;21.33;;;8.30;87.40;;;;;;5006059;28;20464;-70
2024/03/05 04:33:09;;;;;;;65.57;23.97;;;8.40;87.70;;;;;;5009436;28;20431;-70
2024/03/05 04:35:35;;;;;;;62.70;23.60;;;8.50;87.70;;;;;;5009570;28;20948;-71
2024/03/05 04:38:01;;;;;;;50.07;20.23;;;8.50;87.70;;;;;;5009958;28;20516;-70
2024/03/05 04:40:26;;;;;;;59.43;22.70;;;8.40;87.40;;;;;;5008116;28;20516;-70
2024/03/05 04:42:52;;;;;;;53.90;21.00;;;8.40;87.60;;;;;;5012991;28;20740;-70
2024/03/05 04:45:18;;;;;;;65.90;23.70;;;8.30;87.60;;;;;;5008783;28;20174;-70
2024/03/05 04:47:44;;;;;;;52.53;20.50;;;8.30;87.70;;;;;;5011376;28;20561;-70
2024/03/05 04:50:10;;;;;;;56.77;20.47;;;8.30;87.80;;;;;;5009680;28;20444;-71
2024/03/05 04:52:35;;;;;;;62.13;23.80;;;8.30;88.00;;;;;;5007142;28;20538;-70
2024/03/05 04:55:01;;;;;;;54.17;19.73;;;8.30;88.00;;;;;;5009703;28;20305;-72
2024/03/05 04:57:27;;;;;;;52.30;20.80;;;8.40;88.10;;;;;;5011263;28;20492;-72
2024/03/05 04:59:53;;;;;;;61.87;23.90;;;8.50;88.10;;;;;;5009155;28;20404;-70
2024/03/05 05:02:19;;;;;;;55.10;20.47;;;8.50;87.80;;;;;;5008767;28;20453;-71
2024/03/05 05:04:45;;;;;;;43.73;19.67;;;8.50;87.80;;;;;;5009742;28;20193;-71
2024/03/05 05:07:11;;;;;;;51.47;21.27;;;8.60;87.80;;;;;;5010358;28;20193;-70
2024/03/05 05:09:37;;;;;;;64.10;23.07;;;8.70;87.60;;;;;;5010982;28;20443;-69
2024/03/05 05:12:03;;;;;;;51.43;21.70;;;8.70;87.40;;;;;;5007503;28;20464;-70
2024/03/05 05:14:29;;;;;;;54.43;21.30;;;8.70;87.30;;;;;;5010298;28;20292;-70
2024/03/05 05:16:57;;;;;;;57.90;22.27;;;8.80;87.30;;;;;;5010820;28;20186;-71
2024/03/05 05:19:25;;;;;;;52.50;20.20;;;8.80;87.10;;;;;;5009431;28;20425;-72
2024/03/05 05:21:51;;;;;;;62.50;21.97;;;8.70;86.90;;;;;;5011702;28;20527;-72
2024/03/05 05:24:18;;;;;;;61.13;23.97;;;8.80;87.00;;;;;;5015849;28;20420;-71
2024/03/05 05:26:44;;;;;;;51.93;20.43;;;8.70;86.90;;;;;;5017087;28;20427;-71
2024/03/05 05:29:09;;;;;;;63.80;22.03;;;8.70;87.00;;;;;;5014985;28;20519;-69
2024/03/05 05:31:36;;;;;;;60.07;23.17;;;8.60;87.00;;;;;;5014400;28;20206;-71
2024/03/05 05:34:02;;;;;;;65.23;26.30;;;8.60;87.30;;;;;;5013775;28;20206;-71
2024/03/05 05:36:29;;;;;;;64.20;22.13;;;8.50;87.40;;;;;;5016175;28;20413;-70
2024/03/05 05:38:55;;;;;;;65.90;23.80;;;8.50;87.60;;;;;;5012560;28;20967;-71
2024/03/05 05:41:21;;;;;;;74.80;22.77;;;8.40;87.70;;;;;;5012523;28;20825;-72
2024/03/05 05:43:50;;;;;;;59.20;24.17;;;8.50;88.00;;;;;;5015901;28;20425;-70
2024/03/05 05:46:18;;;;;;;66.57;24.23;;;8.50;88.10;;;;;;5014335;28;21016;-70
2024/03/05 05:48:48;;;;;;;73.40;23.70;;;8.40;88.10;;;;;;5012653;28;20421;-70
2024/03/05 05:51:15;;;;;;;65.87;27.33;;;8.40;88.30;;;;;;5008752;28;20478;-70
2024/03/05 05:53:41;;;;;;;76.43;24.27;;;8.30;88.30;;;;;;5012120;28;20568;-69
2024/03/05 05:56:06;;;;;;;76.07;28.40;;;8.30;88.40;;;;;;5012550;28;20504;-70
2024/03/05 05:58:36;;;;;;;65.83;24.10;;;8.30;88.60;;;;;;5012663;28;20197;-72
2024/03/05 06:01:05;;;;;;;54.80;22.87;;;8.40;88.90;;;;;;5005871;28;20206;-72
2024/03/05 06:03:31;;;;;;;62.50;25.60;;;8.50;88.70;;;;;;5012636;28;20436;-71
2024/03/05 06:05:57;;;;;;;68.33;26.07;;;8.40;88.40;;;;;;5012394;28;20655;-73
2024/03/05 06:08:23;;;;;;;59.80;22.80;;;8.50;88.60;;;;;;5012152;28;20433;-71
2024/03/05 06:10:48;;;;;;;68.50;24.03;;;8.60;88.40;;;;;;5008441;28;20286;-72
2024/03/05 06:13:15;;;;;;;75.07;27.20;;;8.50;88.00;;;;;;5012361;28;20182;-71
2024/03/05 06:15:41;;;;;;;63.63;23.40;;;8.50;88.00;;;;;;5012015;28;20181;-70
2024/03/05 06:18:06;;;;;;;70.50;24.40;;;8.50;88.30;;;;;;5015074;28;20424;-74
2024/03/05 06:20:32;;;;;;;68.83;24.70;;;8.60;88.30;;;;;;5011436;28;20948;-70
2024/03/05 06:23:00;;;;;;;61.67;23.20;;;8.60;88.30;;;;;;5013891;28;20260;-71
2024/03/05 06:25:27;;;;;;;67.20;25.93;;;8.70;88.40;;;;;;5010916;28;20925;-72
2024/03/05 06:27:53;;;;;;;55.03;21.50;;;8.70;87.80;;;;;;5011642;28;20413;-70
2024/03/05 06:30:18;;;;;;;74.00;25.97;;;8.70;87.80;;;;;;5011621;28;20409;-69
2024/03/05 06:32:49;;;;;;;71.23;25.10;;;8.70;87.80;;;;;;5008532;28;20441;-71
2024/03/05 06:35:16;;;;;;;82.03;26.73;;;8.80;88.00;;;;;;5008882;28;20198;-71
2024/03/05 06:37:45;;;;;;;62.60;25.30;;;8.70;87.60;;;;;;5010800;28;20421;-72
2024/03/05 06:40:12;;;;;;;75.20;27.43;;;8.70;87.40;;;;;;5008945;28;20790;-72
2024/03/05 06:42:39;;;;;;;62.63;22.30;;;8.70;87.60;;;;;;5007539;28;20556;-71
2024/03/05 06:45:14;;;;;;;64.37;25.37;;;8.70;87.60;;;;;;5011799;28;20417;-71
2024/03/05 06:47:46;;;;;;;55.93;22.90;;;8.90;87.60;;;;;;5010972;28;20439;-70
2024/03/05 06:50:19;;;;;;;57.60;22.73;;;9.00;87.40;;;;;;5009760;28;20444;-70
2024/03/05 06:58:17;;;;;;;59.47;23.60;;;9.00;86.90;;;;;;5011515;28;20416;-72
2024/03/05 07:00:45;;;;;;;61.73;22.90;;;9.10;86.60;;;;;;5008379;28;20526;-70
2024/03/05 07:03:12;;;;;;;61.83;24.23;;;9.10;86.30;;;;;;5011050;28;20432;-71
2024/03/05 07:05:38;;;;;;;67.73;24.90;;;9.10;86.20;;;;;;5010880;28;20444;-69
2024/03/05 07:08:05;;;;;;;72.63;25.73;;;9.00;86.30;;;;;;5011328;28;20938;-70
2024/03/05 07:10:31;;;;;;;61.30;24.27;;;9.00;86.60;;;;;;5008856;28;20520;-71
2024/03/05 07:12:57;;;;;;;63.03;25.20;;;9.00;86.50;;;;;;5009957;28;20429;-70
2024/03/05 07:15:23;;;;;;;68.50;23.33;;;9.00;86.50;;;;;;5011106;28;20301;-69
2024/03/05 07:17:49;;;;;;;63.03;23.07;;;9.10;86.50;;;;;;5011138;28;20421;-69
2024/03/05 07:20:37;;;;;;;62.03;24.07;;;9.20;86.50;;;;;;5010653;28;20516;-71
2024/03/05 07:23:01;;;;;;;61.77;22.30;;;9.20;85.60;;;;;;5010153;28;20452;-71
2024/03/05 07:25:27;;;;;;;68.47;25.90;;;9.20;85.20;;;;;;5010234;28;20452;-70
2024/03/05 07:27:53;;;;;;;67.60;25.70;;;9.20;84.90;;;;;;5011157;28;20265;-73
2024/03/05 07:30:20;;;;;;;64.00;25.00;;;9.10;85.00;;;;;;5010318;28;20745;-73
2024/03/05 07:32:49;;;;;;;63.00;23.40;;;9.10;85.30;;;;;;5008022;28;20471;-72
2024/03/05 07:35:17;;;;;;;63.30;24.33;;;9.10;85.20;;;;;;5010208;28;20480;-72
2024/03/05 07:37:46;;;;;;;67.07;24.30;;;9.10;85.30;;;;;;5010512;28;20427;-70
2024/03/05 07:40:16;;;;;;;71.03;25.80;;;9.10;85.30;;;;;;5011147;28;20440;-71
2024/03/05 07:42:48;;;;;;;64.30;23.77;;;9.00;85.50;;;;;;5010741;28;20805;-70
2024/03/05 07:45:15;;;;;;;61.63;23.03;;;9.00;85.70;;;;;;5009666;28;20895;-71
2024/03/05 07:47:41;;;;;;;65.73;23.90;;;9.00;85.70;;;;;;5012456;28;20956;-71
2024/03/05 07:50:12;;;;;;;63.97;24.27;;;9.00;85.90;;;;;;5010341;28;20813;-71
2024/03/05 07:52:41;;;;;;;63.70;25.40;;;8.90;86.00;;;;;;5008134;28;20656;-70
2024/03/05 07:55:13;;;;;;;69.97;25.07;;;8.90;86.00;;;;;;5010212;28;20520;-70
2024/03/05 07:57:39;;;;;;;74.60;25.10;;;8.80;86.00;;;;;;5008010;28;20425;-71
2024/03/05 08:00:19;;;;;;;81.17;26.53;;;8.80;86.30;;;;;;5009780;28;20421;-71
2024/03/05 08:02:45;;;;;;;76.43;27.93;;;8.80;86.50;;;;;;5007766;28;20523;-72
2024/03/05 08:05:15;;;;;;;73.43;26.07;;;8.90;86.60;;;;;;5010186;28;20421;-73
2024/03/05 08:07:41;;;;;;;67.00;24.93;;;8.80;86.50;;;;;;5010868;28;20767;-70
2024/03/05 08:10:08;;;;;;;64.73;24.63;;;8.80;86.60;;;;;;5010583;28;20492;-72
2024/03/05 08:12:43;;;;;;;73.93;26.23;;;8.90;86.60;;;;;;5009313;28;20210;-72
2024/03/05 08:15:13;;;;;;;66.30;25.30;;;8.90;86.50;;;;;;5013079;28;20456;-72
2024/03/05 08:17:40;;;;;;;63.47;26.13;;;8.80;86.30;;;;;;4995211;28;20794;-70
2024/03/05 08:20:09;;;;;;;63.33;25.03;;;8.80;86.30;;;;;;5011097;28;20511;-71
2024/03/05 08:22:35;;;;;;;51.23;21.37;;;8.90;86.50;;;;;;5008058;28;20484;-71
2024/03/05 08:25:09;;;;;;;60.37;23.00;;;8.90;86.30;;;;;;5010697;28;20464;-74
2024/03/05 08:27:38;;;;;;;60.77;23.10;;;9.00;86.30;;;;;;5010867;28;20432;-71
2024/03/05 08:30:07;;;;;;;52.90;22.00;;;9.10;85.70;;;;;;5010390;28;20420;-72
2024/03/05 08:32:37;;;;;;;62.37;24.03;;;9.00;86.00;;;;;;5008098;28;20539;-72
2024/03/05 08:35:05;;;;;;;60.77;24.20;;;8.90;86.20;;;;;;5005900;28;20552;-70
2024/03/05 08:37:31;;;;;;;64.87;23.90;;;8.70;86.30;;;;;;5010762;28;20528;-71
2024/03/05 08:39:56;;;;;;;76.47;25.60;;;8.60;86.80;;;;;;5019400;28;20451;-70
2024/03/05 08:42:22;;;;;;;65.63;23.30;;;8.60;87.00;;;;;;5022609;28;20229;-71
2024/03/05 08:44:48;;;;;;;61.97;22.53;;;8.60;87.00;;;;;;5018833;28;20189;-70
2024/03/05 08:47:14;;;;;;;68.00;23.00;;;8.70;87.10;;;;;;5011049;28;20663;-72
2024/03/05 08:49:40;;;;;;;66.43;23.07;;;8.70;87.00;;;;;;5011592;28;20201;-71
2024/03/05 08:52:06;;;;;;;55.87;24.50;;;8.70;87.00;;;;;;5008438;28;20463;-72
2024/03/05 08:54:32;;;;;;;62.63;23.80;;;8.60;86.90;;;;;;5006884;28;20460;-70
2024/03/05 08:56:58;;;;;;;65.00;24.77;;;8.70;86.90;;;;;;5013875;28;20530;-69
2024/03/05 08:59:27;;;;;;;61.27;23.83;;;8.60;87.10;;;;;;5013261;28;20420;-72
2024/03/05 09:01:53;;;;;;;56.23;21.93;;;8.60;87.10;;;;;;5009865;28;20456;-71
2024/03/05 09:04:23;;;;;;;51.00;22.30;;;8.60;87.10;;;;;;5013461;28;20435;-72
2024/03/05 09:06:50;;;;;;;45.20;18.53;;;8.50;87.30;;;;;;5013874;28;20436;-71
2024/03/05 09:09:16;;;;;;;37.60;15.83;;;8.40;87.70;;;;;;5014820;28;20506;-72
2024/03/05 09:11:42;;;;;;;42.83;17.40;;;8.20;87.40;;;;;;5009712;28;20522;-72
2024/03/05 09:14:08;;;;;;;33.27;15.03;;;8.20;87.70;;;;;;5013651;28;20468;-70
2024/03/05 09:16:37;;;;;;;36.80;15.40;;;8.10;87.80;;;;;;5015594;28;20643;-70
2024/03/05 09:19:03;;;;;;;35.87;15.33;;;8.10;88.10;;;;;;5016153;28;20436;-71
2024/03/05 09:21:28;;;;;;;31.60;13.03;;;8.10;88.40;;;;;;5012236;28;20453;-71
2024/03/05 09:23:54;;;;;;;24.10;11.23;;;8.20;88.40;;;;;;5012759;28;20804;-70
2024/03/05 09:26:20;;;;;;;30.60;12.73;;;8.10;88.40;;;;;;5014822;28;20186;-68
2024/03/05 09:28:45;;;;;;;35.87;13.43;;;8.00;88.40;;;;;;5012867;28;20212;-71
2024/03/05 09:31:11;;;;;;;34.97;13.20;;;8.10;88.70;;;;;;5010358;28;20210;-71
2024/03/05 09:33:36;;;;;;;33.47;12.57;;;8.00;88.70;;;;;;5014830;28;20224;-68
2024/03/05 09:36:04;;;;;;;34.37;14.03;;;7.90;88.60;;;;;;5019078;28;20209;-71
2024/03/05 09:38:31;;;;;;;27.93;11.87;;;8.00;88.90;;;;;;5014153;28;20178;-73
2024/03/05 09:40:57;;;;;;;24.50;11.47;;;8.20;88.90;;;;;;4996625;28;20453;-71
2024/03/05 09:43:24;;;;;;;24.23;11.07;;;8.30;88.30;;;;;;5017619;28;20783;-70
2024/03/05 09:45:51;;;;;;;27.50;10.80;;;8.30;87.70;;;;;;5013162;28;20254;-71
2024/03/05 09:48:19;;;;;;;22.27;8.90;;;8.30;87.40;;;;;;5015408;28;20897;-70
2024/03/05 09:50:49;;;;;;;21.90;9.20;;;8.30;87.30;;;;;;5009600;28;20476;-71
2024/03/05 09:53:15;;;;;;;20.70;9.80;;;8.30;87.30;;;;;;5012562;28;20416;-70
2024/03/05 09:55:41;;;;;;;22.20;9.90;;;8.30;87.30;;;;;;5011909;28;21001;-72
2024/03/05 09:58:11;;;;;;;21.43;10.40;;;8.20;87.00;;;;;;5012523;28;20504;-72
2024/03/05 10:00:37;;;;;;;22.93;9.50;;;8.20;86.90;;;;;;5009277;28;20635;-70
2024/03/05 10:03:03;;;;;;;18.57;8.70;;;8.20;87.00;;;;;;5012385;28;20421;-71
2024/03/05 10:05:29;;;;;;;18.50;9.67;;;8.30;86.90;;;;;;5012144;28;20491;-70
2024/03/05 10:07:55;;;;;;;21.90;9.43;;;8.40;86.80;;;;;;5011511;28;21742;-71
2024/03/05 10:10:21;;;;;;;20.70;8.17;;;8.30;86.60;;;;;;5011821;28;20181;-70
2024/03/05 10:12:47;;;;;;;18.60;7.90;;;8.30;86.80;;;;;;5008989;28;20185;-70
2024/03/05 10:15:20;;;;;;;15.37;7.30;;;8.40;86.60;;;;;;5012019;28;20556;-71
2024/03/05 10:17:52;;;;;;;17.23;6.70;;;8.30;86.20;;;;;;5012489;28;20432;-72
2024/03/05 10:20:28;;;;;;;14.40;7.70;;;8.40;85.90;;;;;;5007118;28;20423;-71
2024/03/05 10:22:59;;;;;;;14.60;6.20;;;8.50;85.90;;;;;;5011902;28;20436;-74
2024/03/05 10:25:26;;;;;;;15.33;7.10;;;8.60;85.60;;;;;;5011587;28;20953;-71
2024/03/05 10:27:52;;;;;;;17.07;7.27;;;8.80;85.50;;;;;;5012164;28;20782;-70
2024/03/05 10:30:24;;;;;;;17.53;8.00;;;8.80;85.30;;;;;;5011446;28;20432;-70
2024/03/05 10:32:54;;;;;;;17.47;8.70;;;8.90;85.50;;;;;;5010536;28;20436;-70
2024/03/05 10:35:21;;;;;;;18.33;8.37;;;8.80;84.70;;;;;;5010966;28;20456;-71
2024/03/05 10:38:00;;;;;;;14.50;7.50;;;8.90;84.70;;;;;;5013414;28;20428;-72
2024/03/05 10:40:32;;;;;;;15.10;7.63;;;8.90;84.90;;;;;;5013614;28;20429;-72
2024/03/05 10:43:00;;;;;;;16.43;7.47;;;9.00;84.70;;;;;;5011099;28;20433;-71
2024/03/05 10:45:29;;;;;;;19.20;7.57;;;9.10;84.30;;;;;;5011410;28;20459;-72
2024/03/05 10:47:58;;;;;;;14.70;6.67;;;8.90;83.40;;;;;;5010196;28;20420;-73
2024/03/05 10:50:26;;;;;;;14.33;7.10;;;8.40;83.70;;;;;;5009914;28;20515;-72
2024/03/05 10:52:53;;;;;;;12.10;6.70;;;8.40;84.70;;;;;;5010520;28;20510;-72
2024/03/05 10:55:21;;;;;;;15.20;6.50;;;8.40;85.20;;;;;;5012964;28;20472;-71
2024/03/05 11:00:35;;;;;;;17.90;8.03;;;8.50;84.60;;;;;;5010445;28;20423;-71
2024/03/05 11:03:08;;;;;;;19.13;6.93;;;8.60;84.60;;;;;;5012985;28;20416;-71
2024/03/05 11:05:56;;;;;;;17.93;8.10;;;8.70;84.70;;;;;;5012821;28;20475;-71
2024/03/05 11:08:25;;;;;;;16.27;7.33;;;8.90;84.40;;;;;;5007408;28;20802;-72
2024/03/05 11:10:58;;;;;;;19.40;8.67;;;8.80;84.10;;;;;;5009008;28;20452;-70
2024/03/05 11:13:26;;;;;;;18.20;8.23;;;8.50;84.40;;;;;;5011977;28;20440;-72
2024/03/05 11:15:52;;;;;;;18.03;8.60;;;8.60;85.20;;;;;;5010899;28;20433;-70
2024/03/05 11:18:31;;;;;;;16.97;8.50;;;8.60;84.90;;;;;;5011137;28;20997;-72
2024/03/05 11:21:01;;;;;;;14.77;7.97;;;8.60;85.00;;;;;;5007905;28;20456;-73
2024/03/05 11:23:35;;;;;;;16.90;8.50;;;8.60;84.90;;;;;;5010728;28;20429;-71
2024/03/05 11:26:03;;;;;;;12.43;7.17;;;8.80;85.00;;;;;;5010821;28;20445;-70
2024/03/05 11:28:29;;;;;;;14.87;7.73;;;8.80;84.60;;;;;;5011544;28;20433;-70
2024/03/05 11:31:17;;;;;;;13.23;6.47;;;8.90;84.30;;;;;;5007407;28;20448;-71
2024/03/05 11:33:44;;;;;;;12.93;6.83;;;9.00;84.10;;;;;;5007820;28;20579;-71
2024/03/05 11:36:20;;;;;;;11.90;5.80;;;9.00;83.00;;;;;;5011036;28;20420;-72
2024/03/05 11:39:04;;;;;;;11.50;6.07;;;8.90;82.70;;;;;;5012092;28;20424;-71
2024/03/05 11:41:34;;;;;;;13.43;5.57;;;8.90;82.70;;;;;;5006939;28;20483;-69
2024/03/05 11:44:02;;;;;;;11.73;5.67;;;8.80;82.50;;;;;;5010119;28;20464;-70
2024/03/05 11:46:48;;;;;;;10.87;5.43;;;8.80;82.40;;;;;;5011205;28;21050;-71
2024/03/05 11:49:15;;;;;;;10.90;6.43;;;8.70;82.50;;;;;;5010323;28;20433;-70
2024/03/05 11:51:45;;;;;;;10.17;5.30;;;8.80;82.80;;;;;;5010618;28;20460;-70
2024/03/05 11:54:16;;;;;;;9.30;5.27;;;8.70;82.40;;;;;;5011152;28;20826;-70
2024/03/05 11:56:46;;;;;;;8.33;4.80;;;8.60;82.40;;;;;;5012032;28;20429;-71
2024/03/05 11:59:12;;;;;;;9.10;5.00;;;8.50;82.70;;;;;;5006867;28;20425;-71
2024/03/05 12:01:41;;;;;;;9.73;4.27;;;8.60;82.80;;;;;;5009434;28;20576;-68
2024/03/05 12:04:09;;;;;;;8.47;4.60;;;8.70;82.10;;;;;;5007576;28;20488;-73
2024/03/05 12:06:35;;;;;;;7.70;4.60;;;8.60;81.70;;;;;;5012578;28;20909;-73
2024/03/05 12:09:21;;;;;;;6.93;3.97;;;8.60;81.50;;;;;;5010468;28;20417;-73
2024/03/05 12:11:56;;;;;;;6.50;4.07;;;8.60;81.20;;;;;;5008031;28;20878;-72
2024/03/05 12:14:22;;;;;;;10.60;4.73;;;8.60;80.80;;;;;;5012346;28;20472;-72
2024/03/05 12:16:47;;;;;;;7.20;3.87;;;8.70;80.80;;;;;;5010896;28;20963;-73
2024/03/05 12:19:14;;;;;;;6.70;3.63;;;8.90;80.60;;;;;;5011829;28;20650;-71
2024/03/05 12:21:39;;;;;;;5.10;3.57;;;8.90;79.70;;;;;;5008171;28;20212;-71
2024/03/05 12:24:05;;;;;;;6.90;3.87;;;8.90;79.50;;;;;;5011718;28;20786;-72
2024/03/05 12:26:33;;;;;;;6.97;3.77;;;8.90;79.30;;;;;;5011743;28;20194;-71
2024/03/05 12:29:01;;;;;;;6.50;3.87;;;8.90;78.90;;;;;;5010535;28;20193;-70
2024/03/05 12:31:27;;;;;;;8.07;3.60;;;8.90;79.50;;;;;;5013702;28;20468;-71
2024/03/05 12:33:52;;;;;;;8.40;3.60;;;8.90;79.70;;;;;;5015528;28;20457;-71
2024/03/05 12:36:18;;;;;;;4.73;3.23;;;8.90;79.20;;;;;;5013039;28;20552;-71
2024/03/05 12:38:44;;;;;;;4.40;3.27;;;9.00;78.70;;;;;;5009611;28;20507;-72
2024/03/05 12:41:09;;;;;;;6.67;3.63;;;9.00;77.70;;;;;;5007003;28;20398;-71
2024/03/05 12:43:35;;;;;;;6.37;3.63;;;9.00;78.40;;;;;;5012670;28;20189;-71
2024/03/05 12:46:04;;;;;;;7.20;4.17;;;9.00;79.00;;;;;;5011320;28;20748;-72
2024/03/05 12:48:34;;;;;;;5.20;3.50;;;9.20;79.50;;;;;;5008154;28;20189;-71
2024/03/05 12:51:00;;;;;;;5.60;3.50;;;9.30;79.00;;;;;;5007912;28;20480;-73